createdAt,value
2018-03-27T00:05:31.054Z,12.9
2018-03-27T00:15:30.325Z,13
2018-03-27T00:25:29.542Z,13
2018-03-27T00:35:28.937Z,13.2
2018-03-27T00:45:28.029Z,13
2018-03-27T00:55:27.166Z,12.5
2018-03-27T01:05:26.425Z,13
2018-03-27T01:15:25.507Z,12.7
2018-03-27T01:25:25.021Z,13.1
2018-03-27T01:35:24.141Z,12.8
2018-03-27T01:45:23.137Z,13.1
2018-03-27T01:55:22.281Z,12.6
2018-03-27T02:05:21.771Z,13.1
2018-03-27T02:15:20.683Z,12.5
2018-03-27T02:25:20.185Z,12.9
2018-03-27T02:35:19.402Z,13
2018-03-27T02:45:18.333Z,13.1
2018-03-27T02:55:17.526Z,13.1
2018-03-27T03:05:16.752Z,13.2
2018-03-27T03:15:15.905Z,12.9
2018-03-27T03:25:15.149Z,13.1
2018-03-27T03:35:14.400Z,12.7
2018-03-27T03:45:13.561Z,12.8
2018-03-27T03:55:12.998Z,12.8
2018-03-27T04:05:11.975Z,12.8
2018-03-27T04:15:11.217Z,12.7
2018-03-27T04:25:10.785Z,13
2018-03-27T04:35:09.542Z,12.6
2018-03-27T04:45:08.795Z,12.6
2018-03-27T04:55:08.338Z,12.6
2018-03-27T05:05:07.197Z,12.7
2018-03-27T05:15:06.378Z,13
2018-03-27T05:25:05.830Z,12.7
2018-03-27T05:35:04.832Z,13.2
2018-03-27T05:45:04.223Z,12.7
2018-03-27T05:55:03.289Z,12.7
2018-03-27T06:05:02.410Z,12.4
2018-03-27T06:15:01.610Z,13.1
2018-03-27T06:25:00.760Z,13.2
2018-03-27T06:35:00.055Z,12.9
2018-03-27T06:44:59.211Z,12.6
2018-03-27T06:54:58.514Z,12.9
2018-03-27T07:04:57.605Z,12.9
2018-03-27T07:14:57.123Z,12.6
2018-03-27T07:24:56.515Z,12.5
2018-03-27T07:34:55.766Z,12.7
2018-03-27T07:44:54.388Z,12.6
2018-03-27T07:55:08.480Z,13.1
2018-03-27T08:04:52.840Z,13
2018-03-27T08:14:52.297Z,12.7
2018-03-27T08:24:51.304Z,12.9
2018-03-27T08:34:50.384Z,13
2018-03-27T08:44:49.655Z,13.4
2018-03-27T08:54:48.790Z,13.5
2018-03-27T09:04:48.025Z,13.4
2018-03-27T09:14:47.253Z,13.5
2018-03-27T09:24:46.498Z,14
2018-03-27T09:34:45.626Z,14.4
2018-03-27T09:44:45.064Z,14.4
2018-03-27T09:54:44.116Z,14.4
2018-03-27T10:04:43.470Z,14.6
2018-03-27T10:14:42.670Z,14.3
2018-03-27T10:24:41.584Z,14.6
2018-03-27T10:34:40.882Z,14.2
2018-03-27T10:44:39.987Z,14.5
2018-03-27T10:54:39.188Z,14.4
2018-03-27T11:04:38.527Z,14.6
2018-03-27T11:14:37.650Z,14.3
2018-03-27T11:24:36.893Z,14
2018-03-27T11:34:36.085Z,14.5
2018-03-27T11:44:35.557Z,14.2
2018-03-27T11:54:34.472Z,14.4
2018-03-27T12:04:33.610Z,14.7
2018-03-27T12:14:32.813Z,14.1
2018-03-27T12:24:32.308Z,14.1
2018-03-27T12:34:31.232Z,14
2018-03-27T12:44:30.456Z,14.1
2018-03-27T12:54:29.627Z,14.4
2018-03-27T13:04:28.878Z,14.7
2018-03-27T13:14:28.264Z,14.5
2018-03-27T13:24:27.239Z,14.6
2018-03-27T13:34:26.480Z,14.1
2018-03-27T13:44:25.714Z,13.3
2018-03-27T13:54:24.997Z,13.1
2018-03-27T14:04:24.194Z,12.6
2018-03-27T14:14:23.595Z,12.8
2018-03-27T14:24:22.748Z,12.6
2018-03-27T14:34:21.771Z,13.2
2018-03-27T14:44:20.855Z,13.5
2018-03-27T14:54:20.085Z,12.8
2018-03-27T15:04:19.631Z,13.3
2018-03-27T15:14:18.451Z,12.5
2018-03-27T15:24:18.013Z,12.8
2018-03-27T15:34:17.011Z,13.2
2018-03-27T15:44:16.065Z,12.9
2018-03-27T15:54:15.317Z,13.1
2018-03-27T16:04:14.749Z,12.6
2018-03-27T16:14:13.669Z,12.7
2018-03-27T16:24:13.001Z,13.1
2018-03-27T16:34:12.809Z,12.9
2018-03-27T16:44:11.330Z,13.2
2018-03-27T16:54:10.631Z,13.1
2018-03-27T17:04:09.690Z,12.5
2018-03-27T17:14:08.925Z,12.6
2018-03-27T17:24:08.097Z,12.9
2018-03-27T17:34:07.377Z,12.7
2018-03-27T17:44:06.657Z,12.7
2018-03-27T17:54:05.714Z,12.6
2018-03-27T18:04:04.912Z,12.8
2018-03-27T18:34:02.545Z,12.6
2018-03-27T18:44:01.851Z,12.9
2018-03-27T18:54:01.056Z,12.9
2018-03-27T19:04:00.250Z,13.1
2018-03-27T19:13:59.647Z,12.5
2018-03-27T19:23:58.563Z,12.9
2018-03-27T19:33:57.773Z,12.7
2018-03-27T19:43:57.110Z,13.1
2018-03-27T19:53:56.181Z,12.5
2018-03-27T20:03:55.993Z,13
2018-03-27T20:13:54.604Z,12.5
2018-03-27T20:23:54.075Z,13
2018-03-27T20:33:53.340Z,13
2018-03-27T20:43:52.362Z,12.9
2018-03-27T20:53:51.795Z,12.6
2018-03-27T21:03:50.752Z,13.2
2018-03-27T21:13:49.808Z,12.9
2018-03-27T21:23:49.154Z,12.6
2018-03-27T21:33:48.227Z,12.8
2018-03-27T21:43:47.625Z,13.1
2018-03-27T21:53:46.641Z,13
2018-03-27T22:03:45.934Z,12.6
2018-03-27T22:13:45.051Z,13
2018-03-27T22:23:44.235Z,12.6
2018-03-27T22:33:43.434Z,13
2018-03-27T22:43:42.643Z,12.7
2018-03-27T22:53:42.236Z,12.8
2018-03-27T23:03:41.085Z,12.8
2018-03-27T23:13:40.314Z,12.8
2018-03-27T23:23:39.569Z,13.1
2018-03-27T23:33:38.774Z,12.5
2018-03-27T23:43:38.239Z,12.7
2018-03-27T23:53:37.091Z,13.1
